Orbital elements of COSMOS 2251 DEB
| Launched | 15 June 1993 |
| Flight ended | – |
| Launch site | Plesetsk Missile and Space Complex, Russia |
| Owner | Commonwealth of Independent States (former USSR) |
| NORAD ID | 34544 |
| Date fetched |
Epoch osculation |
Inc. [°] |
Ecc. | RA asc node [hr] |
Arg Peri. [°] |
Mean anom [°] |
Mean motion [rev/day] |
Abs. mag |
| Date fetched |
Epoch osculation |
Inc. [°] |
Ecc. | RA asc node [hr] |
Arg Peri. [°] |
Mean anom [°] |
Mean motion [rev/day] |
Abs. mag |
| 2026 May 05 17:57 | 2026 May 03 20:51:55 | 73.9170 | 0.03813 | 22.2603 | 336.0975 | 43.9987 | 13.54922 | – |
| 2026 May 04 17:57 | 2026 Apr 29 16:01:43 | 73.9167 | 0.03813 | 22.7139 | 343.6680 | 43.9987 | 13.54922 | – |
| 2026 May 03 17:57 | 2026 Apr 29 16:01:43 | 73.9167 | 0.03813 | 22.7139 | 343.6680 | 43.9987 | 13.54922 | – |
| 2026 May 02 17:57 | 2026 Apr 29 16:01:43 | 73.9167 | 0.03813 | 22.7139 | 343.6680 | 43.9987 | 13.54922 | – |
| 2026 May 01 17:56 | 2026 Apr 29 16:01:43 | 73.9167 | 0.03813 | 22.7139 | 343.6680 | 43.9987 | 13.54922 | – |
| 2026 Apr 30 17:56 | 2026 Apr 29 16:01:43 | 73.9167 | 0.03813 | 22.7139 | 343.6680 | 43.9987 | 13.54922 | – |
| 2026 Apr 29 17:57 | 2026 Apr 22 22:36:50 | 73.9180 | 0.03812 | 23.4401 | 355.7764 | 43.9987 | 13.54922 | – |
| 2026 Apr 28 17:56 | 2026 Apr 22 22:36:50 | 73.9180 | 0.03812 | 23.4401 | 355.7764 | 43.9987 | 13.54922 | – |
| 2026 Apr 27 17:58 | 2026 Apr 22 22:36:50 | 73.9180 | 0.03812 | 23.4401 | 355.7764 | 43.9987 | 13.54922 | – |
| 2026 Apr 26 17:58 | 2026 Apr 22 22:36:50 | 73.9180 | 0.03812 | 23.4401 | 355.7764 | 43.9987 | 13.54922 | – |
| 2026 Apr 25 17:58 | 2026 Apr 22 22:36:50 | 73.9180 | 0.03812 | 23.4401 | 355.7764 | 43.9987 | 13.54922 | – |
| 2026 Apr 24 17:59 | 2026 Apr 22 22:36:50 | 73.9180 | 0.03812 | 23.4401 | 355.7764 | 43.9987 | 13.54922 | – |
| 2026 Apr 23 17:57 | 2026 Apr 19 03:07:08 | 73.9184 | 0.03811 | 23.8516 | 2.6323 | 43.9987 | 13.54922 | – |
| 2026 Apr 22 17:57 | 2026 Apr 19 03:07:08 | 73.9184 | 0.03811 | 23.8516 | 2.6323 | 43.9987 | 13.54922 | – |
| 2026 Apr 21 17:57 | 2026 Apr 19 03:07:08 | 73.9184 | 0.03811 | 23.8516 | 2.6323 | 43.9987 | 13.54922 | – |
| 2026 Apr 20 17:57 | 2026 Apr 19 03:07:08 | 73.9184 | 0.03811 | 23.8516 | 2.6323 | 43.9987 | 13.54922 | – |
| 2026 Apr 19 17:58 | 2026 Apr 19 03:07:08 | 73.9184 | 0.03811 | 23.8516 | 2.6323 | 43.9987 | 13.54922 | – |
| 2026 Apr 18 17:56 | 2026 Apr 13 03:34:32 | 73.9187 | 0.03810 | 0.4973 | 13.4098 | 43.9987 | 13.54922 | – |
| 2026 Apr 16 17:57 | 2026 Apr 13 03:34:32 | 73.9187 | 0.03810 | 0.4973 | 13.4098 | 43.9987 | 13.54922 | – |
| 2026 Apr 14 17:57 | 2026 Apr 13 03:34:32 | 73.9187 | 0.03810 | 0.4973 | 13.4098 | 43.9987 | 13.54922 | – |
| 2026 Apr 13 17:57 | 2026 Apr 13 03:34:32 | 73.9187 | 0.03810 | 0.4973 | 13.4098 | 43.9987 | 13.54922 | – |
| 2026 Apr 12 17:57 | 2026 Apr 08 04:49:38 | 73.9189 | 0.03808 | 1.0314 | 22.3244 | 43.9987 | 13.54922 | – |
| 2026 Apr 11 17:57 | 2026 Apr 08 04:49:38 | 73.9189 | 0.03808 | 1.0314 | 22.3244 | 43.9987 | 13.54922 | – |
| 2026 Apr 10 17:58 | 2026 Apr 08 04:49:38 | 73.9189 | 0.03808 | 1.0314 | 22.3244 | 43.9987 | 13.54922 | – |
| 2026 Apr 09 18:01 | 2026 Apr 08 04:49:38 | 73.9189 | 0.03808 | 1.0314 | 22.3244 | 43.9987 | 13.54922 | – |
| 2026 Apr 08 17:57 | 2026 Apr 08 04:49:38 | 73.9189 | 0.03808 | 1.0314 | 22.3244 | 43.9987 | 13.54922 | – |